createdAt,value
2018-09-13T00:01:54.683Z,14.70
2018-09-13T00:04:23.535Z,14.66
2018-09-13T00:06:52.516Z,14.63
2018-09-13T00:09:21.357Z,14.97
2018-09-13T00:11:50.210Z,14.71
2018-09-13T00:14:19.044Z,14.68
2018-09-13T00:16:47.871Z,14.63
2018-09-13T00:19:16.736Z,14.55
2018-09-13T00:21:45.572Z,14.51
2018-09-13T00:24:14.402Z,14.51
2018-09-13T00:26:43.282Z,14.48
2018-09-13T00:29:12.126Z,14.39
2018-09-13T00:31:40.970Z,14.36
2018-09-13T00:34:09.806Z,14.36
2018-09-13T00:36:38.648Z,14.38
2018-09-13T00:39:08.151Z,14.43
2018-09-13T00:41:37.358Z,14.37
2018-09-13T00:44:06.286Z,14.31
2018-09-13T00:46:35.559Z,14.28
2018-09-13T00:49:04.747Z,14.24
2018-09-13T00:51:34.071Z,14.24
2018-09-13T00:54:02.979Z,14.23
2018-09-13T00:56:31.834Z,14.20
2018-09-13T00:59:00.721Z,14.21
2018-09-13T01:01:29.502Z,14.23
2018-09-13T01:03:58.338Z,14.20
2018-09-13T01:06:27.178Z,14.19
2018-09-13T01:08:56.024Z,14.16
2018-09-13T01:11:24.853Z,14.21
2018-09-13T01:13:53.664Z,14.23
2018-09-13T01:16:22.506Z,14.19
2018-09-13T01:18:51.330Z,14.21
2018-09-13T01:21:20.443Z,14.14
2018-09-13T01:23:49.275Z,14.10
2018-09-13T01:26:18.116Z,14.05
2018-09-13T01:28:47.042Z,14.03
2018-09-13T01:31:15.897Z,14.02
2018-09-13T01:33:44.711Z,13.99
2018-09-13T01:36:13.538Z,13.98
2018-09-13T01:38:42.409Z,13.94
2018-09-13T01:41:11.225Z,14.31
2018-09-13T01:43:40.071Z,14.16
2018-09-13T01:46:08.897Z,14.12
2018-09-13T01:48:37.710Z,14.08
2018-09-13T01:51:06.644Z,14.01
2018-09-13T01:53:35.477Z,13.96
2018-09-13T01:56:04.340Z,13.93
2018-09-13T01:58:33.174Z,13.94
2018-09-13T02:01:02.031Z,13.93
2018-09-13T02:03:30.905Z,13.95
2018-09-13T02:05:59.757Z,13.89
2018-09-13T02:08:28.625Z,13.89
2018-09-13T02:10:57.462Z,13.86
2018-09-13T02:13:26.297Z,13.87
2018-09-13T02:15:55.163Z,13.86
2018-09-13T02:18:23.978Z,13.88
2018-09-13T02:20:52.799Z,13.89
2018-09-13T02:23:21.624Z,13.93
2018-09-13T02:25:50.448Z,13.94
2018-09-13T02:28:19.292Z,13.99
2018-09-13T02:30:48.141Z,13.99
2018-09-13T02:33:16.992Z,14.01
2018-09-13T02:35:45.818Z,14.02
2018-09-13T02:38:14.651Z,14.03
2018-09-13T02:40:43.474Z,14.02
2018-09-13T02:43:12.286Z,14.01
2018-09-13T02:45:41.118Z,13.98
2018-09-13T02:48:09.972Z,14.01
2018-09-13T02:50:38.798Z,13.98
2018-09-13T02:53:07.965Z,13.98
2018-09-13T02:55:36.780Z,13.94
2018-09-13T02:58:05.637Z,13.94
2018-09-13T03:00:34.472Z,13.92
2018-09-13T03:03:03.303Z,13.90
2018-09-13T03:05:32.100Z,13.88
2018-09-13T03:08:00.927Z,13.84
2018-09-13T03:10:29.744Z,13.86
2018-09-13T03:12:58.584Z,13.86
2018-09-13T03:15:27.419Z,13.83
2018-09-13T03:17:56.235Z,13.86
2018-09-13T03:20:25.075Z,13.85
2018-09-13T03:22:53.920Z,13.85
2018-09-13T03:25:22.740Z,13.90
2018-09-13T03:27:51.819Z,13.88
2018-09-13T03:30:20.667Z,13.90
2018-09-13T03:32:49.591Z,13.93
2018-09-13T03:35:18.688Z,13.92
2018-09-13T03:37:47.539Z,13.93
2018-09-13T03:40:16.352Z,13.97
2018-09-13T03:42:45.183Z,13.97
2018-09-13T03:45:14.035Z,13.93
2018-09-13T03:47:42.914Z,13.93
2018-09-13T03:50:11.779Z,13.91
2018-09-13T03:52:40.594Z,13.89
2018-09-13T03:55:09.433Z,13.85
2018-09-13T03:57:38.267Z,13.86
2018-09-13T04:00:07.379Z,13.86
2018-09-13T04:02:36.216Z,14.19
2018-09-13T04:05:05.098Z,13.94
2018-09-13T04:07:33.956Z,13.89
2018-09-13T04:10:02.811Z,13.89
2018-09-13T04:12:31.619Z,13.86
2018-09-13T04:15:00.453Z,13.83
2018-09-13T04:17:29.309Z,13.84
2018-09-13T04:19:58.162Z,13.85
2018-09-13T04:22:27.069Z,13.86
2018-09-13T04:24:55.876Z,13.83
2018-09-13T04:27:24.774Z,13.79
2018-09-13T04:29:53.586Z,13.80
2018-09-13T04:32:22.433Z,13.77
2018-09-13T04:34:51.245Z,13.77
2018-09-13T04:37:20.089Z,14.14
2018-09-13T04:39:48.914Z,13.92
2018-09-13T04:42:17.768Z,13.93
2018-09-13T04:44:46.675Z,13.90
2018-09-13T04:47:15.541Z,13.84
2018-09-13T04:49:44.364Z,13.73
2018-09-13T04:52:13.239Z,13.71
2018-09-13T04:54:42.089Z,13.66
2018-09-13T04:57:10.934Z,13.61
2018-09-13T04:59:39.763Z,13.56
2018-09-13T05:02:08.585Z,13.86
2018-09-13T05:04:37.429Z,13.61
2018-09-13T05:07:06.234Z,13.57
2018-09-13T05:09:35.066Z,13.56
2018-09-13T05:12:03.896Z,13.50
2018-09-13T05:14:32.763Z,13.42
2018-09-13T05:17:01.664Z,13.35
2018-09-13T05:19:30.516Z,13.29
2018-09-13T05:21:59.332Z,13.28
2018-09-13T05:24:28.247Z,13.22
2018-09-13T05:26:56.988Z,13.20
2018-09-13T05:29:25.808Z,13.21
2018-09-13T05:31:54.662Z,13.19
2018-09-13T05:34:23.507Z,13.16
2018-09-13T05:36:52.392Z,13.17
2018-09-13T05:39:21.229Z,13.13
2018-09-13T05:41:50.046Z,13.13
2018-09-13T05:44:18.879Z,13.13
2018-09-13T05:46:47.722Z,13.14
2018-09-13T05:49:16.559Z,13.16
2018-09-13T05:51:45.420Z,13.19
2018-09-13T05:54:14.288Z,13.20
2018-09-13T05:56:43.148Z,13.24
2018-09-13T05:59:11.981Z,13.27
2018-09-13T06:01:40.844Z,13.27
2018-09-13T06:04:09.690Z,13.26
2018-09-13T06:06:38.547Z,13.24
2018-09-13T06:09:08.011Z,13.21
2018-09-13T06:11:36.849Z,13.53
2018-09-13T06:14:05.961Z,13.30
2018-09-13T06:16:35.501Z,13.26
2018-09-13T06:19:04.337Z,13.23
2018-09-13T06:21:33.177Z,13.24
2018-09-13T06:24:02.026Z,13.27
2018-09-13T06:26:30.882Z,13.30
2018-09-13T06:28:59.733Z,13.34
2018-09-13T06:31:28.569Z,13.32
2018-09-13T06:33:57.392Z,13.35
2018-09-13T06:36:26.307Z,13.42
2018-09-13T06:38:55.084Z,13.50
2018-09-13T06:41:23.896Z,13.53
2018-09-13T06:43:52.729Z,13.59
2018-09-13T06:46:21.606Z,13.70
2018-09-13T06:48:50.427Z,13.78
2018-09-13T06:51:19.256Z,13.85
2018-09-13T06:53:48.116Z,13.90
2018-09-13T06:56:16.948Z,13.98
2018-09-13T06:58:45.765Z,14.10
2018-09-13T07:01:14.631Z,14.32
2018-09-13T07:03:43.471Z,14.90
2018-09-13T07:06:12.294Z,15.21
2018-09-13T07:08:41.144Z,15.46
2018-09-13T07:11:09.970Z,15.47
2018-09-13T07:13:39.449Z,15.77
2018-09-13T07:16:08.271Z,16.02
2018-09-13T07:18:37.079Z,16.19
2018-09-13T07:21:06.039Z,16.40
2018-09-13T07:23:34.928Z,16.73
2018-09-13T07:26:03.669Z,16.91
2018-09-13T07:28:32.520Z,17.18
2018-09-13T07:31:01.556Z,17.60
2018-09-13T07:33:30.313Z,17.61
2018-09-13T07:35:59.129Z,17.82
2018-09-13T07:38:27.992Z,17.95
2018-09-13T07:40:56.809Z,18.18
2018-09-13T07:43:25.654Z,18.13
2018-09-13T07:45:54.481Z,18.19
2018-09-13T07:48:23.321Z,18.15
2018-09-13T07:50:52.157Z,18.08
2018-09-13T07:53:21.001Z,18.27
2018-09-13T07:55:49.892Z,18.32
2018-09-13T07:58:18.666Z,18.00
2018-09-13T08:00:47.512Z,18.10
2018-09-13T08:03:16.369Z,18.02
2018-09-13T08:05:45.207Z,18.54
2018-09-13T08:08:14.050Z,19.85
2018-09-13T08:10:42.887Z,19.85
2018-09-13T08:13:11.780Z,19.63
2018-09-13T08:15:40.632Z,19.59
2018-09-13T08:18:09.705Z,19.42
2018-09-13T08:20:38.531Z,19.10
2018-09-13T08:23:07.466Z,18.73
2018-09-13T08:25:36.239Z,18.37
2018-09-13T08:28:05.055Z,18.13
2018-09-13T08:30:33.921Z,18.04
2018-09-13T08:33:02.932Z,17.99
2018-09-13T08:35:31.807Z,17.97
2018-09-13T08:38:00.657Z,18.11
2018-09-13T08:40:30.381Z,18.34
2018-09-13T08:43:05.357Z,18.25
2018-09-13T08:45:36.364Z,18.25
2018-09-13T08:48:08.659Z,18.22
2018-09-13T08:50:40.719Z,18.46
2018-09-13T08:53:09.756Z,18.48
2018-09-13T08:55:41.046Z,18.51
2018-09-13T08:58:10.053Z,18.99
2018-09-13T09:00:39.058Z,18.80
2018-09-13T09:03:08.046Z,19.70
2018-09-13T09:05:39.364Z,21.02
2018-09-13T09:08:08.618Z,23.91
2018-09-13T09:10:38.226Z,25.92
2018-09-13T09:13:07.400Z,27.49
2018-09-13T09:15:39.048Z,28.92
2018-09-13T09:18:08.614Z,27.95
2018-09-13T09:20:46.642Z,26.78
2018-09-13T09:23:15.849Z,27.47
2018-09-13T09:25:48.180Z,28.71
2018-09-13T09:28:17.079Z,30.42
2018-09-13T09:30:46.044Z,31.31
2018-09-13T09:33:15.235Z,31.59
2018-09-13T09:35:47.344Z,31.65
2018-09-13T09:38:16.465Z,32.40
2018-09-13T09:40:50.936Z,33.50
2018-09-13T09:43:17.947Z,32.71
2018-09-13T09:45:50.098Z,32.95
2018-09-13T09:48:19.414Z,31.23
2018-09-13T09:50:54.509Z,31.28
2018-09-13T09:53:23.824Z,32.08
2018-09-13T09:55:53.031Z,32.81
2018-09-13T09:58:22.376Z,33.38
2018-09-13T10:01:09.549Z,33.05
2018-09-13T10:03:41.481Z,34.13
2018-09-13T10:06:17.816Z,33.76
2018-09-13T10:08:49.184Z,33.82
2018-09-13T10:11:18.452Z,33.89
2018-09-13T10:13:49.069Z,33.91
2018-09-13T10:16:48.238Z,34.02
2018-09-13T10:19:35.015Z,33.09
2018-09-13T10:22:25.394Z,33.53
2018-09-13T10:25:12.256Z,34.49
2018-09-13T10:28:00.111Z,32.93
2018-09-13T10:30:47.073Z,32.61
2018-09-13T10:33:36.067Z,32.31
2018-09-13T10:36:24.331Z,32.33
2018-09-13T10:39:12.397Z,33.12
2018-09-13T10:42:03.357Z,32.90
2018-09-13T10:44:51.559Z,33.33
2018-09-13T10:47:42.162Z,33.37
2018-09-13T10:50:28.622Z,32.84
2018-09-13T10:53:11.783Z,32.50
2018-09-13T10:55:43.765Z,32.20
2018-09-13T10:58:15.485Z,32.63
2018-09-13T11:00:44.616Z,32.87
2018-09-13T11:03:13.694Z,32.93
2018-09-13T11:05:43.035Z,33.88
2018-09-13T11:08:12.119Z,33.39
2018-09-13T11:10:45.595Z,33.47
2018-09-13T11:13:35.224Z,32.70
2018-09-13T11:16:02.852Z,30.59
2018-09-13T11:18:38.319Z,29.54
2018-09-13T11:21:07.715Z,29.95
2018-09-13T11:23:36.845Z,30.57
2018-09-13T11:26:06.068Z,30.63
2018-09-13T11:28:40.082Z,32.83
2018-09-13T11:31:09.064Z,32.36
2018-09-13T11:33:40.747Z,31.64
2018-09-13T11:36:11.536Z,30.95
2018-09-13T11:38:42.592Z,30.03
2018-09-13T11:41:11.962Z,29.90
2018-09-13T11:43:46.446Z,28.96
2018-09-13T11:46:16.795Z,28.06
2018-09-13T11:48:45.929Z,27.42
2018-09-13T11:51:17.496Z,27.04
2018-09-13T11:53:46.758Z,27.12
2018-09-13T11:56:15.793Z,27.00
2018-09-13T11:58:44.758Z,26.73
2018-09-13T12:01:13.919Z,27.03
2018-09-13T12:03:42.974Z,26.83
2018-09-13T12:06:12.044Z,26.67
2018-09-13T12:08:40.881Z,26.38
2018-09-13T12:11:09.706Z,26.18
2018-09-13T12:13:38.528Z,26.12
2018-09-13T12:16:07.398Z,25.91
2018-09-13T12:18:36.283Z,25.76
2018-09-13T12:21:05.115Z,25.66
2018-09-13T12:23:33.951Z,25.07
2018-09-13T12:26:02.780Z,24.67
2018-09-13T12:28:31.641Z,23.82
2018-09-13T12:31:00.463Z,23.81
2018-09-13T12:33:29.396Z,23.86
2018-09-13T12:35:58.209Z,24.25
2018-09-13T12:38:27.037Z,24.54
2018-09-13T12:40:55.952Z,24.46
2018-09-13T12:43:24.790Z,24.46
2018-09-13T12:45:53.591Z,24.63
2018-09-13T12:48:22.444Z,24.69
2018-09-13T12:50:51.275Z,24.61
2018-09-13T12:53:20.117Z,24.73
2018-09-13T12:55:55.986Z,24.81
2018-09-13T12:58:26.086Z,24.89
2018-09-13T13:00:54.988Z,25.08
2018-09-13T13:03:23.856Z,25.03
2018-09-13T13:05:52.976Z,24.87
2018-09-13T13:08:21.819Z,24.86
2018-09-13T13:10:50.672Z,24.79
2018-09-13T13:13:19.523Z,24.87
2018-09-13T13:15:48.406Z,24.83
2018-09-13T13:18:17.245Z,24.68
2018-09-13T13:20:46.085Z,24.44
2018-09-13T13:23:14.943Z,24.12
2018-09-13T13:25:43.783Z,23.87
2018-09-13T13:28:12.605Z,23.96
2018-09-13T13:30:41.419Z,23.64
2018-09-13T13:33:10.257Z,23.53
2018-09-13T13:35:39.059Z,23.74
2018-09-13T13:38:07.953Z,23.81
2018-09-13T13:40:36.791Z,23.66
2018-09-13T13:43:05.625Z,23.46
2018-09-13T13:45:34.491Z,23.18
2018-09-13T13:48:03.318Z,22.92
2018-09-13T13:50:32.124Z,22.85
2018-09-13T13:53:00.960Z,22.82
2018-09-13T13:55:29.840Z,22.74
2018-09-13T13:57:58.800Z,22.55
2018-09-13T14:00:27.648Z,22.42
2018-09-13T14:02:56.486Z,22.34
2018-09-13T14:05:25.321Z,22.26
2018-09-13T14:07:54.170Z,22.11
2018-09-13T14:10:23.009Z,21.96
2018-09-13T14:12:51.841Z,21.87
2018-09-13T14:15:20.666Z,21.69
2018-09-13T14:17:49.494Z,21.73
2018-09-13T14:20:18.418Z,21.68
2018-09-13T14:22:47.238Z,21.83
2018-09-13T14:25:16.148Z,22.04
2018-09-13T14:27:44.962Z,22.17
2018-09-13T14:30:13.832Z,21.99
2018-09-13T14:32:42.656Z,21.91
2018-09-13T14:35:11.500Z,21.94
2018-09-13T14:37:40.350Z,22.21
2018-09-13T14:40:09.532Z,22.33
2018-09-13T14:42:38.390Z,22.64
2018-09-13T14:45:07.213Z,22.66
2018-09-13T14:47:36.058Z,22.66
2018-09-13T14:50:04.848Z,22.68
2018-09-13T14:52:33.714Z,22.76
2018-09-13T14:55:02.578Z,22.80
2018-09-13T14:57:31.415Z,22.84
2018-09-13T15:00:00.276Z,22.83
2018-09-13T15:02:30.033Z,22.73
2018-09-13T15:04:59.011Z,22.67
2018-09-13T15:07:28.036Z,22.65
2018-09-13T15:10:06.628Z,22.67
2018-09-13T15:12:35.634Z,22.63
2018-09-13T15:15:04.897Z,22.63
2018-09-13T15:17:34.055Z,22.67
2018-09-13T15:20:03.415Z,22.56
2018-09-13T15:22:38.406Z,22.39
2018-09-13T15:25:07.503Z,22.35
2018-09-13T15:27:36.606Z,22.30
2018-09-13T15:30:06.151Z,22.26
2018-09-13T15:32:35.286Z,22.21
2018-09-13T15:35:04.353Z,22.00
2018-09-13T15:37:33.481Z,21.70
2018-09-13T15:40:02.610Z,21.43
2018-09-13T15:42:34.294Z,21.13
2018-09-13T15:45:03.214Z,20.98
2018-09-13T15:47:34.328Z,20.82
2018-09-13T15:50:03.529Z,20.73
2018-09-13T15:52:35.468Z,20.56
2018-09-13T15:55:04.741Z,20.57
2018-09-13T15:57:33.681Z,20.59
2018-09-13T16:00:02.697Z,20.62
2018-09-13T16:02:31.835Z,20.46
2018-09-13T16:05:00.888Z,20.37
2018-09-13T16:07:30.001Z,20.27
2018-09-13T16:09:59.008Z,20.30
2018-09-13T16:12:28.250Z,20.31
2018-09-13T16:14:57.288Z,20.43
2018-09-13T16:17:26.562Z,20.43
2018-09-13T16:19:58.841Z,20.49
2018-09-13T16:22:27.881Z,20.54
2018-09-13T16:24:58.992Z,20.56
2018-09-13T16:27:31.243Z,20.51
2018-09-13T16:30:00.890Z,20.52
2018-09-13T16:32:29.985Z,20.52
2018-09-13T16:34:59.928Z,20.47
2018-09-13T16:37:46.815Z,20.52
2018-09-13T16:40:33.939Z,20.43
2018-09-13T16:43:15.743Z,20.45
2018-09-13T16:45:44.743Z,20.36
2018-09-13T16:48:13.819Z,20.31
2018-09-13T16:50:42.941Z,20.23
2018-09-13T16:53:12.305Z,20.16
2018-09-13T16:55:41.546Z,20.06
2018-09-13T16:58:10.653Z,19.95
2018-09-13T17:00:42.602Z,19.85
2018-09-13T17:03:15.369Z,19.72
2018-09-13T17:05:44.497Z,19.65
2018-09-13T17:08:13.483Z,19.61
2018-09-13T17:10:42.652Z,19.56
2018-09-13T17:13:15.220Z,19.48
2018-09-13T17:15:44.524Z,19.41
2018-09-13T17:18:13.876Z,19.25
2018-09-13T17:20:43.096Z,19.13
2018-09-13T17:23:12.290Z,19.07
2018-09-13T17:25:41.446Z,18.98
2018-09-13T17:28:10.636Z,18.89
2018-09-13T17:30:43.018Z,18.75
2018-09-13T17:33:12.110Z,18.68
2018-09-13T17:35:43.470Z,18.53
2018-09-13T17:38:12.534Z,18.46
2018-09-13T17:40:41.669Z,18.36
2018-09-13T17:43:12.790Z,18.23
2018-09-13T17:45:45.183Z,18.07
2018-09-13T17:48:14.321Z,18.02
2018-09-13T17:50:43.514Z,17.93
2018-09-13T17:53:12.456Z,17.79
2018-09-13T17:55:44.320Z,17.67
2018-09-13T17:58:15.969Z,17.57
2018-09-13T18:00:42.524Z,17.41
2018-09-13T18:03:11.789Z,17.32
2018-09-13T18:05:40.900Z,17.20
2018-09-13T18:08:10.072Z,17.07
2018-09-13T18:10:39.226Z,16.96
2018-09-13T18:13:08.454Z,16.88
2018-09-13T18:15:37.551Z,16.79
2018-09-13T18:18:06.791Z,16.71
2018-09-13T18:20:35.940Z,16.62
2018-09-13T18:23:05.150Z,16.54
2018-09-13T18:25:34.186Z,16.84
2018-09-13T18:28:03.196Z,16.89
2018-09-13T18:30:32.552Z,16.64
2018-09-13T18:33:01.320Z,16.53
2018-09-13T18:35:30.163Z,16.77
2018-09-13T18:37:58.989Z,16.75
2018-09-13T18:40:27.821Z,16.47
2018-09-13T18:42:56.656Z,16.46
2018-09-13T18:45:25.492Z,16.43
2018-09-13T18:47:54.503Z,16.38
2018-09-13T18:50:23.361Z,16.31
2018-09-13T18:52:52.230Z,16.26
2018-09-13T18:55:21.487Z,16.14
2018-09-13T18:57:50.339Z,15.98
2018-09-13T19:00:19.271Z,15.90
2018-09-13T19:02:48.110Z,15.73
2018-09-13T19:05:16.922Z,15.73
2018-09-13T19:07:45.739Z,15.93
2018-09-13T19:10:14.560Z,15.64
2018-09-13T19:12:43.401Z,15.63
2018-09-13T19:15:12.213Z,15.54
2018-09-13T19:17:41.097Z,15.41
2018-09-13T19:20:09.900Z,15.34
2018-09-13T19:22:38.771Z,15.30
2018-09-13T19:25:07.600Z,15.25
2018-09-13T19:27:36.437Z,15.14
2018-09-13T19:30:05.310Z,15.06
2018-09-13T19:32:34.130Z,15.02
2018-09-13T19:35:02.988Z,14.92
2018-09-13T19:37:31.864Z,14.86
2018-09-13T19:40:00.694Z,14.80
2018-09-13T19:42:29.549Z,14.75
2018-09-13T19:44:58.391Z,14.69
2018-09-13T19:47:27.227Z,14.59
2018-09-13T19:49:56.052Z,14.52
2018-09-13T19:52:24.873Z,14.51
2018-09-13T19:54:53.737Z,14.48
2018-09-13T19:57:22.581Z,14.39
2018-09-13T19:59:51.488Z,14.33
2018-09-13T20:02:20.376Z,14.30
2018-09-13T20:04:49.242Z,14.57
2018-09-13T20:07:18.037Z,14.31
2018-09-13T20:09:46.855Z,14.21
2018-09-13T20:12:15.806Z,14.17
2018-09-13T20:14:44.552Z,14.16
2018-09-13T20:17:13.403Z,14.43
2018-09-13T20:19:42.228Z,14.18
2018-09-13T20:22:11.947Z,14.07
2018-09-13T20:24:40.844Z,14.00
2018-09-13T20:27:09.614Z,13.95
2018-09-13T20:29:38.481Z,13.89
2018-09-13T20:32:07.349Z,13.84
2018-09-13T20:34:36.175Z,13.80
2018-09-13T20:37:05.064Z,13.74
2018-09-13T20:39:33.961Z,13.66
2018-09-13T20:42:02.824Z,13.61
2018-09-13T20:44:31.650Z,13.58
2018-09-13T20:47:00.491Z,13.53
2018-09-13T20:49:29.389Z,13.46
2018-09-13T20:51:58.222Z,13.43
2018-09-13T20:54:27.093Z,13.36
2018-09-13T20:56:55.929Z,13.34
2018-09-13T20:59:24.757Z,13.30
2018-09-13T21:01:53.588Z,13.20
2018-09-13T21:04:22.431Z,13.15
2018-09-13T21:06:51.235Z,13.16
2018-09-13T21:09:20.131Z,13.10
2018-09-13T21:11:48.958Z,13.04
2018-09-13T21:14:17.810Z,13.03
2018-09-13T21:16:46.646Z,13.01
2018-09-13T21:19:15.476Z,12.97
2018-09-13T21:21:44.350Z,12.89
2018-09-13T21:24:13.227Z,12.79
2018-09-13T21:26:42.035Z,12.77
2018-09-13T21:29:10.851Z,12.72
2018-09-13T21:31:39.718Z,12.90
2018-09-13T21:34:08.536Z,12.61
2018-09-13T21:36:37.395Z,12.94
2018-09-13T21:39:08.597Z,12.69
2018-09-13T21:41:37.463Z,12.63
2018-09-13T21:44:06.281Z,12.56
2018-09-13T21:46:35.139Z,12.50
2018-09-13T21:49:03.972Z,12.42
2018-09-13T21:51:32.830Z,12.38
2018-09-13T21:54:01.652Z,12.33
2018-09-13T21:56:30.490Z,12.33
2018-09-13T21:58:59.420Z,12.29
2018-09-13T22:01:28.408Z,12.25
2018-09-13T22:03:57.424Z,12.23
2018-09-13T22:06:26.277Z,12.20
2018-09-13T22:08:55.152Z,12.12
2018-09-13T22:11:24.080Z,12.07
2018-09-13T22:13:52.826Z,11.96
2018-09-13T22:16:21.636Z,11.95
2018-09-13T22:18:50.477Z,12.27
2018-09-13T22:21:19.294Z,11.93
2018-09-13T22:23:48.117Z,11.93
2018-09-13T22:26:16.953Z,12.23
2018-09-13T22:28:45.779Z,11.89
2018-09-13T22:31:14.626Z,11.88
2018-09-13T22:33:43.477Z,11.76
2018-09-13T22:36:12.320Z,11.72
2018-09-13T22:38:41.136Z,11.67
2018-09-13T22:41:09.985Z,11.99
2018-09-13T22:43:51.442Z,11.68
2018-09-13T22:46:21.644Z,11.61
2018-09-13T22:48:50.506Z,11.54
2018-09-13T22:51:19.933Z,11.45
2018-09-13T22:53:48.807Z,11.43
2018-09-13T22:56:17.691Z,11.44
2018-09-13T22:58:46.533Z,11.41
2018-09-13T23:01:15.391Z,11.48
2018-09-13T23:03:44.246Z,11.41
2018-09-13T23:06:13.111Z,11.34
2018-09-13T23:08:41.927Z,11.60
2018-09-13T23:11:10.752Z,11.30
2018-09-13T23:13:39.599Z,11.65
2018-09-13T23:16:08.556Z,11.36
2018-09-13T23:18:37.254Z,11.30
2018-09-13T23:21:06.095Z,11.20
2018-09-13T23:23:34.947Z,11.17
2018-09-13T23:26:03.792Z,11.12
2018-09-13T23:28:32.634Z,11.09
2018-09-13T23:31:01.460Z,11.00
2018-09-13T23:33:30.301Z,10.97
2018-09-13T23:35:59.115Z,10.96
2018-09-13T23:38:27.945Z,10.87
2018-09-13T23:40:56.783Z,10.81
2018-09-13T23:43:25.614Z,10.77
2018-09-13T23:45:54.434Z,10.68
2018-09-13T23:48:23.296Z,10.64
2018-09-13T23:50:52.120Z,10.66
2018-09-13T23:53:20.953Z,10.60
2018-09-13T23:55:49.800Z,10.59
2018-09-13T23:58:18.640Z,10.55
